createdAt,value
2019-03-17T00:02:18.090Z,71.00
2019-03-17T00:04:49.692Z,70.80
2019-03-17T00:07:20.206Z,70.50
2019-03-17T00:09:49.738Z,70.60
2019-03-17T00:12:19.168Z,70.30
2019-03-17T00:14:49.461Z,70.00
2019-03-17T00:17:19.355Z,69.80
2019-03-17T00:19:51.121Z,70.00
2019-03-17T00:22:23.363Z,70.10
2019-03-17T00:25:09.127Z,70.00
2019-03-17T00:27:43.568Z,70.00
2019-03-17T00:30:15.060Z,70.00
2019-03-17T00:32:44.692Z,70.50
2019-03-17T00:35:14.179Z,71.00
2019-03-17T00:37:43.769Z,71.40
2019-03-17T00:40:13.472Z,71.40
2019-03-17T00:42:46.346Z,71.90
2019-03-17T00:45:15.882Z,73.80
2019-03-17T00:47:45.619Z,75.40
2019-03-17T00:50:15.200Z,78.40
2019-03-17T00:52:44.646Z,80.10
2019-03-17T00:55:15.333Z,81.40
2019-03-17T00:57:47.704Z,82.20
2019-03-17T01:00:18.005Z,82.80
2019-03-17T01:02:49.025Z,84.90
2019-03-17T01:05:21.242Z,85.80
2019-03-17T01:07:52.302Z,86.70
2019-03-17T01:10:22.067Z,86.60
2019-03-17T01:13:09.864Z,87.40
2019-03-17T01:15:39.414Z,88.60
2019-03-17T01:18:09.185Z,89.20
2019-03-17T01:20:38.773Z,89.10
2019-03-17T01:23:08.383Z,89.60
2019-03-17T01:25:37.964Z,90.20
2019-03-17T01:28:07.888Z,90.30
2019-03-17T01:30:37.812Z,90.40
2019-03-17T01:33:08.249Z,90.70
2019-03-17T01:35:37.825Z,90.90
2019-03-17T01:38:07.397Z,90.90
2019-03-17T01:40:36.939Z,91.00
2019-03-17T01:43:06.925Z,91.10
2019-03-17T01:45:37.634Z,91.00
2019-03-17T01:48:07.223Z,91.30
2019-03-17T01:50:36.810Z,91.40
2019-03-17T01:53:07.405Z,91.40
2019-03-17T01:55:37.912Z,91.40
2019-03-17T01:58:08.823Z,91.70
2019-03-17T02:00:38.421Z,91.60
2019-03-17T02:03:28.968Z,91.80
2019-03-17T02:06:01.618Z,91.70
2019-03-17T02:08:35.556Z,91.90
2019-03-17T02:11:07.016Z,92.00
2019-03-17T02:13:37.999Z,92.10
2019-03-17T02:16:07.654Z,92.30
2019-03-17T02:18:37.297Z,92.30
2019-03-17T02:21:07.073Z,92.40
2019-03-17T02:23:36.787Z,92.40
2019-03-17T02:26:06.432Z,92.40
2019-03-17T02:28:35.973Z,92.80
2019-03-17T02:31:06.890Z,92.90
2019-03-17T02:33:36.481Z,92.90
2019-03-17T02:36:06.547Z,92.90
2019-03-17T02:38:36.099Z,92.90
2019-03-17T02:41:05.729Z,92.80
2019-03-17T02:43:36.411Z,93.00
2019-03-17T02:46:06.106Z,93.10
2019-03-17T02:48:36.193Z,93.00
2019-03-17T02:51:07.322Z,93.10
2019-03-17T02:53:37.447Z,93.10
2019-03-17T02:56:07.050Z,93.00
2019-03-17T02:58:36.862Z,92.80
2019-03-17T03:01:06.480Z,92.90
2019-03-17T03:03:37.558Z,92.80
2019-03-17T03:06:07.406Z,93.00
2019-03-17T03:08:37.066Z,93.00
2019-03-17T03:11:06.922Z,93.10
2019-03-17T03:13:36.532Z,93.10
2019-03-17T03:16:06.542Z,93.00
2019-03-17T03:18:36.298Z,93.00
2019-03-17T03:21:06.051Z,93.00
2019-03-17T03:23:35.729Z,92.90
2019-03-17T03:26:06.645Z,92.20
2019-03-17T03:28:36.589Z,92.40
2019-03-17T03:31:06.971Z,92.20
2019-03-17T03:33:38.032Z,92.60
2019-03-17T03:36:11.363Z,92.60
2019-03-17T03:38:40.145Z,92.50
2019-03-17T03:41:09.715Z,92.60
2019-03-17T03:43:40.650Z,92.50
2019-03-17T03:46:10.895Z,92.40
2019-03-17T03:48:42.313Z,92.30
2019-03-17T03:51:13.341Z,92.50
2019-03-17T03:53:43.423Z,92.60
2019-03-17T03:56:14.634Z,92.30
2019-03-17T03:58:46.534Z,92.40
2019-03-17T04:01:24.659Z,92.30
2019-03-17T04:04:00.227Z,92.60
2019-03-17T04:06:29.945Z,92.30
2019-03-17T04:09:19.794Z,92.80
2019-03-17T04:11:50.464Z,92.50
2019-03-17T04:14:20.932Z,92.30
2019-03-17T04:17:03.703Z,91.90
2019-03-17T04:19:38.150Z,91.90
2019-03-17T04:22:07.706Z,91.90
2019-03-17T04:24:39.235Z,92.10
2019-03-17T04:27:15.149Z,92.20
2019-03-17T04:29:44.702Z,92.20
2019-03-17T04:32:15.749Z,92.10
2019-03-17T04:34:45.237Z,92.00
2019-03-17T04:37:16.228Z,91.90
2019-03-17T04:39:45.734Z,92.00
2019-03-17T04:42:16.351Z,91.90
2019-03-17T04:44:45.819Z,92.00
2019-03-17T04:47:16.321Z,91.80
2019-03-17T04:49:45.781Z,91.90
2019-03-17T04:52:16.668Z,91.60
2019-03-17T04:54:46.100Z,91.70
2019-03-17T04:57:15.594Z,91.80
2019-03-17T04:59:46.349Z,91.80
2019-03-17T05:02:15.855Z,91.60
2019-03-17T05:04:47.098Z,91.50
2019-03-17T05:07:17.835Z,91.60
2019-03-17T05:09:47.717Z,91.70
2019-03-17T05:12:18.616Z,91.60
2019-03-17T05:14:48.060Z,91.50
2019-03-17T05:17:19.514Z,91.50
2019-03-17T05:19:49.909Z,91.50
2019-03-17T05:22:20.221Z,91.70
2019-03-17T05:24:49.794Z,91.60
2019-03-17T05:27:19.571Z,91.60
2019-03-17T05:29:49.177Z,91.70
2019-03-17T05:32:20.131Z,91.80
2019-03-17T05:34:51.396Z,91.80
2019-03-17T05:37:31.552Z,91.80
2019-03-17T05:40:01.101Z,91.80
2019-03-17T05:42:31.606Z,91.60
2019-03-17T05:45:01.261Z,91.60
2019-03-17T05:47:30.867Z,91.40
2019-03-17T05:50:06.873Z,91.40
2019-03-17T05:52:38.026Z,91.30
2019-03-17T05:55:08.546Z,91.30
2019-03-17T05:57:38.219Z,91.40
2019-03-17T06:00:09.338Z,91.80
2019-03-17T06:02:38.760Z,91.30
2019-03-17T06:05:09.341Z,91.30
2019-03-17T06:07:38.840Z,91.30
2019-03-17T06:10:08.402Z,91.20
2019-03-17T06:12:38.134Z,91.20
2019-03-17T06:15:09.583Z,91.10
2019-03-17T06:17:40.255Z,90.90
2019-03-17T06:20:10.709Z,91.60
2019-03-17T06:22:40.224Z,91.80
2019-03-17T06:25:09.894Z,91.90
2019-03-17T06:27:40.700Z,91.80
2019-03-17T06:30:10.459Z,91.40
2019-03-17T06:32:39.926Z,91.60
2019-03-17T06:35:09.511Z,91.70
2019-03-17T06:37:39.122Z,91.00
2019-03-17T06:40:09.236Z,91.00
2019-03-17T06:42:38.740Z,90.90
2019-03-17T06:45:09.852Z,91.00
2019-03-17T06:47:39.465Z,90.40
2019-03-17T06:50:10.480Z,89.10
2019-03-17T06:52:40.701Z,89.80
2019-03-17T06:55:10.975Z,90.60
2019-03-17T06:57:40.639Z,91.00
2019-03-17T07:00:11.091Z,90.90
2019-03-17T07:02:40.620Z,90.90
2019-03-17T07:05:13.145Z,90.60
2019-03-17T07:07:44.964Z,90.80
2019-03-17T07:10:15.642Z,91.10
2019-03-17T07:12:45.278Z,90.80
2019-03-17T07:15:14.892Z,90.60
2019-03-17T07:17:44.371Z,90.70
2019-03-17T07:20:15.244Z,91.10
2019-03-17T07:22:44.803Z,91.80
2019-03-17T07:25:14.351Z,92.40
2019-03-17T07:27:46.162Z,91.60
2019-03-17T07:30:17.504Z,90.90
2019-03-17T07:32:47.179Z,90.70
2019-03-17T07:35:17.227Z,91.00
2019-03-17T07:37:56.806Z,90.30
2019-03-17T07:40:18.920Z,90.50
2019-03-17T07:42:48.449Z,90.20
2019-03-17T07:45:17.988Z,90.00
2019-03-17T07:48:02.643Z,90.10
2019-03-17T07:51:31.429Z,90.20
2019-03-17T07:54:21.146Z,90.60
2019-03-17T07:57:04.458Z,90.60
2019-03-17T08:05:16.067Z,90.20
2019-03-17T08:07:48.979Z,90.70
2019-03-17T08:11:03.898Z,89.90
2019-03-17T08:21:06.023Z,87.00
2019-03-17T08:23:46.507Z,86.50
2019-03-17T08:26:32.089Z,90.30
2019-03-17T08:29:27.968Z,89.00
2019-03-17T08:32:15.659Z,87.10
2019-03-17T08:34:48.558Z,83.90
2019-03-17T08:37:23.152Z,76.80
2019-03-17T08:39:54.981Z,80.40
2019-03-17T08:42:32.358Z,80.60
2019-03-17T08:45:21.263Z,82.20
2019-03-17T08:47:58.750Z,87.00
2019-03-17T08:51:10.632Z,81.60
2019-03-17T08:54:12.673Z,78.50
2019-03-17T08:57:18.240Z,72.60
2019-03-17T08:59:58.222Z,77.50
2019-03-17T09:02:30.966Z,76.80
2019-03-17T09:05:21.712Z,78.90
2019-03-17T09:08:35.554Z,78.20
2019-03-17T09:11:28.113Z,77.00
2019-03-17T09:14:02.552Z,82.80
2019-03-17T09:16:52.421Z,71.70
2019-03-17T09:22:55.374Z,72.50
2019-03-17T09:25:29.835Z,75.10
2019-03-17T09:28:01.498Z,70.50
2019-03-17T09:30:33.381Z,74.80
2019-03-17T09:33:06.173Z,75.60
2019-03-17T09:35:35.672Z,73.30
2019-03-17T09:38:06.633Z,72.40
2019-03-17T09:40:37.101Z,62.10
2019-03-17T09:43:10.498Z,65.80
2019-03-17T09:45:49.356Z,71.30
2019-03-17T09:48:21.728Z,72.30
2019-03-17T09:50:58.639Z,57.60
2019-03-17T09:53:28.819Z,59.30
2019-03-17T09:55:58.781Z,63.50
2019-03-17T09:58:28.411Z,64.70
2019-03-17T10:01:01.304Z,66.30
2019-03-17T10:03:30.879Z,64.90
2019-03-17T10:06:02.049Z,62.30
2019-03-17T10:08:32.144Z,59.60
2019-03-17T10:11:02.882Z,61.90
2019-03-17T10:13:37.108Z,64.50
2019-03-17T10:16:07.049Z,65.00
2019-03-17T10:18:38.695Z,62.20
2019-03-17T10:21:09.529Z,67.90
2019-03-17T10:23:39.741Z,62.60
2019-03-17T10:26:09.434Z,65.20
2019-03-17T10:28:39.113Z,59.10
2019-03-17T10:31:08.657Z,55.90
2019-03-17T10:33:39.821Z,58.80
2019-03-17T10:36:10.609Z,59.90
2019-03-17T10:39:11.992Z,52.80
2019-03-17T10:41:41.662Z,62.30
2019-03-17T10:44:12.950Z,51.10
2019-03-17T10:46:49.174Z,51.20
2019-03-17T10:49:41.683Z,58.90
2019-03-17T10:52:11.485Z,55.80
2019-03-17T10:54:42.682Z,49.60
2019-03-17T10:57:16.060Z,49.50
2019-03-17T10:59:47.029Z,48.80
2019-03-17T11:02:16.862Z,49.20
2019-03-17T11:04:50.126Z,52.80
2019-03-17T11:07:21.668Z,52.90
2019-03-17T11:09:54.521Z,52.70
2019-03-17T11:12:25.639Z,53.00
2019-03-17T11:14:55.685Z,44.90
2019-03-17T11:17:25.366Z,47.90
2019-03-17T11:19:55.103Z,52.10
2019-03-17T11:22:25.647Z,47.90
2019-03-17T11:24:58.263Z,50.40
2019-03-17T11:27:28.185Z,48.50
2019-03-17T11:30:00.342Z,49.50
2019-03-17T11:32:29.917Z,49.00
2019-03-17T11:34:59.605Z,48.40
2019-03-17T11:37:32.387Z,49.10
2019-03-17T11:40:02.439Z,47.50
2019-03-17T11:42:40.091Z,50.00
2019-03-17T11:45:11.615Z,50.80
2019-03-17T11:47:41.230Z,49.80
2019-03-17T11:50:13.789Z,49.50
2019-03-17T11:52:43.818Z,53.60
2019-03-17T11:55:14.030Z,48.10
2019-03-17T11:57:43.972Z,48.90
2019-03-17T12:00:15.303Z,47.60
2019-03-17T12:02:47.670Z,51.10
2019-03-17T12:05:23.389Z,48.60
2019-03-17T12:07:53.236Z,44.00
2019-03-17T12:10:23.028Z,44.50
2019-03-17T12:12:53.285Z,45.10
2019-03-17T12:15:23.200Z,39.40
2019-03-17T12:17:53.892Z,39.20
2019-03-17T12:20:26.575Z,42.80
2019-03-17T12:22:56.865Z,46.30
2019-03-17T12:25:26.512Z,43.40
2019-03-17T12:27:56.662Z,42.60
2019-03-17T12:30:27.730Z,45.80
2019-03-17T12:33:00.695Z,46.90
2019-03-17T12:35:31.512Z,38.60
2019-03-17T12:38:01.457Z,41.50
2019-03-17T12:40:31.506Z,42.20
2019-03-17T12:43:01.229Z,43.80
2019-03-17T12:45:30.940Z,43.40
2019-03-17T12:48:00.469Z,45.50
2019-03-17T12:50:29.984Z,46.50
2019-03-17T12:52:59.734Z,46.50
2019-03-17T12:55:30.868Z,48.00
2019-03-17T12:58:00.539Z,49.50
2019-03-17T13:00:31.667Z,50.40
2019-03-17T13:03:02.794Z,54.70
2019-03-17T13:05:32.663Z,52.50
2019-03-17T13:08:02.390Z,49.80
2019-03-17T13:10:32.304Z,44.70
2019-03-17T13:13:03.085Z,37.80
2019-03-17T13:15:35.672Z,40.30
2019-03-17T13:18:05.644Z,42.00
2019-03-17T13:20:36.591Z,38.60
2019-03-17T13:23:06.505Z,45.30
2019-03-17T13:25:36.719Z,39.70
2019-03-17T13:28:09.532Z,38.70
2019-03-17T13:30:41.701Z,36.90
2019-03-17T13:33:14.173Z,35.90
2019-03-17T13:35:46.316Z,36.20
2019-03-17T13:38:16.436Z,32.90
2019-03-17T13:40:47.261Z,33.90
2019-03-17T13:43:20.156Z,36.00
2019-03-17T13:45:50.147Z,37.80
2019-03-17T13:48:21.959Z,36.60
2019-03-17T13:50:54.900Z,36.90
2019-03-17T13:53:25.677Z,41.30
2019-03-17T13:55:55.426Z,38.50
2019-03-17T13:58:25.228Z,40.10
2019-03-17T14:00:54.999Z,41.30
2019-03-17T14:03:26.831Z,43.10
2019-03-17T14:05:56.511Z,43.60
2019-03-17T14:08:28.119Z,44.00
2019-03-17T14:10:59.750Z,44.40
2019-03-17T14:13:33.920Z,44.60
2019-03-17T14:16:03.897Z,47.00
2019-03-17T14:18:33.761Z,44.90
2019-03-17T14:21:03.625Z,45.90
2019-03-17T14:23:37.190Z,47.10
2019-03-17T14:26:07.238Z,47.80
2019-03-17T14:28:37.648Z,49.00
2019-03-17T14:31:07.233Z,49.50
2019-03-17T14:33:36.837Z,43.70
2019-03-17T14:36:06.345Z,43.50
2019-03-17T14:38:35.840Z,46.60
2019-03-17T14:41:05.559Z,45.60
2019-03-17T14:43:35.135Z,42.70
2019-03-17T14:46:05.072Z,43.10
2019-03-17T14:48:35.192Z,42.00
2019-03-17T14:51:04.861Z,42.00
2019-03-17T14:53:34.628Z,42.40
2019-03-17T14:56:04.736Z,43.00
2019-03-17T14:58:34.434Z,44.20
2019-03-17T15:01:04.187Z,42.20
2019-03-17T15:03:34.195Z,43.90
2019-03-17T15:06:04.147Z,45.00
2019-03-17T15:08:33.887Z,46.80
2019-03-17T15:11:10.303Z,47.10
2019-03-17T15:13:41.248Z,48.10
2019-03-17T15:16:11.685Z,47.30
2019-03-17T15:18:41.977Z,45.70
2019-03-17T15:21:12.973Z,47.60
2019-03-17T15:23:44.327Z,45.50
2019-03-17T15:26:15.042Z,47.00
2019-03-17T15:28:44.635Z,45.90
2019-03-17T15:31:15.495Z,45.60
2019-03-17T15:33:45.568Z,43.80
2019-03-17T15:36:15.134Z,46.20
2019-03-17T15:38:45.004Z,45.10
2019-03-17T15:41:18.901Z,45.30
2019-03-17T15:43:46.571Z,46.50
2019-03-17T15:46:16.090Z,46.60
2019-03-17T15:48:45.948Z,47.40
2019-03-17T15:51:20.603Z,47.20
2019-03-17T15:53:47.072Z,47.30
2019-03-17T15:56:16.813Z,48.90
2019-03-17T15:58:47.084Z,51.60
2019-03-17T16:01:16.853Z,50.70
2019-03-17T16:03:46.615Z,50.10
2019-03-17T16:06:18.809Z,49.90
2019-03-17T16:08:47.575Z,51.10
2019-03-17T16:11:30.152Z,51.40
2019-03-17T16:13:48.916Z,51.40
2019-03-17T16:16:18.496Z,51.20
2019-03-17T16:18:48.187Z,51.80
2019-03-17T16:21:17.852Z,52.50
2019-03-17T16:23:47.540Z,52.50
2019-03-17T16:26:17.062Z,53.00
2019-03-17T16:28:47.120Z,53.40
2019-03-17T16:31:16.865Z,53.70
2019-03-17T16:33:46.591Z,54.10
2019-03-17T16:36:16.545Z,54.10
2019-03-17T16:38:46.106Z,53.80
2019-03-17T16:41:15.623Z,53.60
2019-03-17T16:43:45.208Z,54.10
2019-03-17T16:46:14.794Z,52.20
2019-03-17T16:48:44.610Z,52.00
2019-03-17T16:51:14.148Z,51.80
2019-03-17T16:53:43.690Z,51.90
2019-03-17T16:56:14.663Z,52.20
2019-03-17T16:58:44.193Z,52.60
2019-03-17T17:01:13.931Z,53.00
2019-03-17T17:03:43.820Z,53.40
2019-03-17T17:06:13.441Z,53.80
2019-03-17T17:08:43.312Z,53.90
2019-03-17T17:11:13.432Z,54.40
2019-03-17T17:13:43.520Z,54.00
2019-03-17T17:16:13.161Z,54.20
2019-03-17T17:18:43.052Z,54.40
2019-03-17T17:21:12.675Z,54.60
2019-03-17T17:23:42.828Z,54.70
2019-03-17T17:26:12.597Z,54.80
2019-03-17T17:28:42.887Z,55.30
2019-03-17T17:31:13.774Z,55.60
2019-03-17T17:33:43.513Z,55.30
2019-03-17T17:36:13.338Z,55.60
2019-03-17T17:38:43.441Z,55.40
2019-03-17T17:41:13.171Z,55.70
2019-03-17T17:43:43.061Z,56.20
2019-03-17T17:46:12.559Z,56.70
2019-03-17T17:48:42.249Z,57.10
2019-03-17T17:51:11.985Z,57.30
2019-03-17T17:53:41.899Z,56.90
2019-03-17T17:56:11.677Z,57.50
2019-03-17T17:58:41.682Z,57.60
2019-03-17T18:01:11.603Z,57.80
2019-03-17T18:03:59.279Z,57.90
2019-03-17T18:07:15.576Z,57.50
2019-03-17T18:09:45.810Z,57.10
2019-03-17T18:12:20.813Z,56.90
2019-03-17T18:14:48.802Z,57.30
2019-03-17T18:20:15.555Z,57.90
2019-03-17T18:22:45.443Z,58.10
2019-03-17T18:25:17.134Z,58.30
2019-03-17T18:27:48.387Z,58.70
2019-03-17T18:30:25.311Z,58.80
2019-03-17T18:32:56.964Z,58.90
2019-03-17T18:36:22.278Z,58.70
2019-03-17T18:38:55.802Z,58.70
2019-03-17T18:41:39.549Z,57.90
2019-03-17T18:44:17.985Z,56.60
2019-03-17T18:46:52.802Z,56.60
2019-03-17T18:49:23.576Z,56.20
2019-03-17T18:51:54.372Z,56.50
2019-03-17T18:54:23.138Z,57.00
2019-03-17T18:56:52.953Z,57.50
2019-03-17T18:59:23.803Z,58.00
2019-03-17T19:01:54.120Z,58.70
2019-03-17T19:04:24.018Z,59.30
2019-03-17T19:07:07.181Z,59.90
2019-03-17T19:09:38.093Z,60.60
2019-03-17T19:12:18.540Z,61.80
2019-03-17T19:14:52.297Z,62.20
2019-03-17T19:17:34.044Z,63.90
2019-03-17T19:20:05.255Z,64.20
2019-03-17T19:22:35.740Z,64.20
2019-03-17T19:25:06.054Z,64.90
2019-03-17T19:27:37.447Z,64.70
2019-03-17T19:33:13.634Z,64.30
2019-03-17T19:39:01.497Z,64.60
2019-03-17T19:41:38.396Z,64.80
2019-03-17T19:44:09.245Z,65.40
2019-03-17T19:46:41.262Z,65.60
2019-03-17T19:49:33.188Z,65.70
2019-03-17T19:52:04.852Z,65.70
2019-03-17T19:54:36.305Z,66.10
2019-03-17T19:57:05.984Z,65.90
2019-03-17T19:59:36.979Z,66.60
2019-03-17T20:02:17.964Z,67.10
2019-03-17T20:04:47.757Z,66.80
2019-03-17T20:07:18.318Z,67.20
2019-03-17T20:10:27.300Z,67.50
2019-03-17T20:13:11.616Z,68.00
2019-03-17T20:15:36.746Z,67.60
2019-03-17T20:18:06.560Z,67.50
2019-03-17T20:20:36.259Z,67.20
2019-03-17T20:23:05.920Z,67.20
2019-03-17T20:25:35.688Z,67.10
2019-03-17T20:28:05.369Z,67.00
2019-03-17T20:30:35.581Z,67.10
2019-03-17T20:33:05.470Z,67.80
2019-03-17T20:35:35.199Z,68.40
2019-03-17T20:38:09.058Z,69.30
2019-03-17T20:40:39.107Z,68.40
2019-03-17T20:43:23.774Z,68.60
2019-03-17T20:45:46.439Z,68.20
2019-03-17T20:48:17.017Z,68.40
2019-03-17T20:50:59.705Z,68.90
2019-03-17T20:53:31.841Z,68.90
2019-03-17T20:56:02.116Z,70.10
2019-03-17T20:58:32.288Z,70.40
2019-03-17T21:01:02.282Z,70.40
2019-03-17T21:03:33.317Z,69.50
2019-03-17T21:06:03.110Z,69.90
2019-03-17T21:08:33.166Z,69.60
2019-03-17T21:11:03.225Z,70.20
2019-03-17T21:13:46.255Z,69.80
2019-03-17T21:16:07.994Z,69.90
2019-03-17T21:18:42.234Z,70.00
2019-03-17T21:21:33.671Z,69.90
2019-03-17T21:24:03.812Z,70.40
2019-03-17T21:29:36.409Z,71.20
2019-03-17T21:32:06.496Z,71.00
2019-03-17T21:34:36.416Z,71.70
2019-03-17T21:37:06.412Z,71.60
2019-03-17T21:39:36.098Z,71.20
2019-03-17T21:42:05.904Z,71.00
2019-03-17T21:44:35.505Z,70.90
2019-03-17T21:47:05.379Z,70.50
2019-03-17T21:49:35.206Z,71.40
2019-03-17T21:52:05.837Z,71.20
2019-03-17T21:54:35.683Z,71.50
2019-03-17T21:57:05.426Z,71.10
2019-03-17T21:59:35.234Z,70.50
2019-03-17T22:02:12.747Z,70.20
2019-03-17T22:04:36.128Z,71.00
2019-03-17T22:07:05.916Z,70.80
2019-03-17T22:09:35.607Z,70.70
2019-03-17T22:12:06.557Z,71.20
2019-03-17T22:14:37.275Z,72.00
2019-03-17T22:17:08.955Z,72.40
2019-03-17T22:19:39.924Z,72.40
2019-03-17T22:22:11.005Z,71.80
2019-03-17T22:24:40.859Z,72.60
2019-03-17T22:27:12.517Z,73.70
2019-03-17T22:29:42.044Z,73.30
2019-03-17T22:32:13.778Z,73.70
2019-03-17T22:34:43.338Z,73.50
2019-03-17T22:37:16.349Z,73.10
2019-03-17T22:39:46.183Z,72.80
2019-03-17T22:42:15.874Z,72.20
2019-03-17T22:44:54.794Z,72.10
2019-03-17T22:47:38.032Z,72.10
2019-03-17T22:54:02.703Z,72.80
2019-03-17T22:56:33.892Z,72.60
2019-03-17T23:03:45.096Z,73.80
2019-03-17T23:06:15.767Z,73.70
2019-03-17T23:08:45.443Z,74.00
2019-03-17T23:11:16.329Z,74.30
2019-03-17T23:13:45.897Z,74.40
2019-03-17T23:16:16.889Z,74.10
2019-03-17T23:19:41.093Z,74.10
2019-03-17T23:25:35.618Z,74.30
2019-03-17T23:28:08.990Z,74.20
2019-03-17T23:33:36.325Z,74.30
2019-03-17T23:39:40.268Z,73.70
2019-03-17T23:42:09.983Z,73.20
2019-03-17T23:44:48.532Z,73.50
2019-03-17T23:47:11.054Z,73.50
2019-03-17T23:49:40.652Z,73.80
2019-03-17T23:52:16.383Z,73.70
2019-03-17T23:54:46.272Z,73.70
2019-03-17T23:57:15.967Z,73.90
2019-03-17T23:59:47.271Z,74.10
